Terminal Aerodrome Forecast
Issued by NWS Sioux Falls, SD

Current Version | Previous Version | Text Only | Print | Product List | Glossary On
Versions: 1 2 3 4 5 6 7 8 9 10 11 12 13
671
FTUS43 KFSD 051135
TAFHON
TAF
KHON 051135Z 0512/0612 19006KT P6SM SKC
     FM051600 20012KT P6SM SKC
     FM060000 18008KT P6SM SKC
     FM060700 17009KT P6SM SKC WS015/19035KT
     FM061000 17010KT P6SM SCT110 WS015/23040KT=

USA.gov is the U.S. government's official web portal to all federal, state and local government web resources and services.